Time;durP1;ratioP1;P1;durP2;ratioP2;P2;SDS_P1;SDS_P2;PMS_P1;PMS_P2;Temp;Humidity;BMP_temperature;BMP_pressure;BME280_temperature;BME280_humidity;BME280_pressure;Samples;Min_cycle;Max_cycle;Signal;HPM_P1;HPM_P2
2023/01/31 07:01:21;;;;;;;29.67;13.23;;;;;;;-145.79;81.25;79522.91;5321260;27;20392;-67
2023/01/31 07:03:52;;;;;;;18.65;10.18;;;;;;;-145.79;81.52;79522.91;5315854;28;20060;-66
2023/01/31 07:06:23;;;;;;;19.75;10.80;;;;;;;-145.79;81.75;79516.56;5313179;28;20165;-68
2023/01/31 07:08:55;;;;;;;20.98;11.32;;;;;;;-145.79;81.94;79512.31;5300898;28;20134;-68
2023/01/31 07:11:26;;;;;;;19.67;10.15;;;;;;;-145.79;81.70;79505.94;5300852;28;20052;-68
2023/01/31 07:13:57;;;;;;;19.15;9.75;;;;;;;-145.79;81.63;79497.47;5309290;28;20068;-68
2023/01/31 07:16:30;;;;;;;19.58;10.20;;;;;;;-145.79;81.86;79499.59;5300786;28;20463;-68
2023/01/31 07:19:04;;;;;;;21.48;10.07;;;;;;;-145.79;82.08;79484.75;5300762;28;20448;-68
2023/01/31 07:21:35;;;;;;;19.75;10.32;;;;;;;-145.79;81.76;79486.88;5303346;28;20107;-68
2023/01/31 07:24:07;;;;;;;18.88;8.95;;;;;;;-145.79;81.65;79472.03;5301319;28;20475;-67
2023/01/31 07:26:38;;;;;;;17.15;8.35;;;;;;;-145.79;81.42;79467.78;5300625;28;20056;-67
2023/01/31 07:29:10;;;;;;;20.33;8.85;;;;;;;-145.79;81.33;79467.78;5314832;28;20030;-67
2023/01/31 07:31:42;;;;;;;20.15;8.85;;;;;;;-145.79;81.36;79457.16;5299957;28;20032;-67
2023/01/31 07:34:13;;;;;;;18.75;8.52;;;;;;;-145.79;81.09;79455.06;5299515;28;20077;-68
2023/01/31 07:36:44;;;;;;;22.00;11.15;;;;;;;-145.79;80.70;79450.81;5299742;28;20020;-68
2023/01/31 07:39:16;;;;;;;13.60;8.82;;;;;;;-145.79;80.70;79442.31;5304077;28;20500;-68
2023/01/31 07:41:47;;;;;;;19.90;8.82;;;;;;;-145.79;80.38;79438.09;5319489;28;20023;-68
2023/01/31 07:44:18;;;;;;;22.50;8.65;;;;;;;-145.79;79.86;79433.84;5316006;28;20085;-67
2023/01/31 07:46:53;;;;;;;21.55;9.20;;;;;;;-145.79;79.79;79427.47;5300517;28;20024;-66
2023/01/31 07:49:24;;;;;;;13.80;7.75;;;;;;;-145.79;79.82;79419.00;5299333;28;20113;-67
2023/01/31 07:51:56;;;;;;;19.63;10.15;;;;;;;-145.79;79.95;79419.00;5299899;28;20117;-67
2023/01/31 07:54:27;;;;;;;17.63;8.05;;;;;;;-145.79;79.87;79416.88;5312738;28;20076;-67
2023/01/31 07:56:58;;;;;;;16.05;9.48;;;;;;;-145.79;79.94;79416.88;5319472;28;20039;-67
2023/01/31 07:59:30;;;;;;;18.13;8.25;;;;;;;-145.79;79.70;79395.66;5320595;28;20067;-67
2023/01/31 08:04:51;;;;;;;14.57;7.65;;;;;;;-145.79;79.56;79395.66;5300452;28;20024;-68
2023/01/31 08:07:22;;;;;;;16.73;8.48;;;;;;;-145.79;79.74;79385.06;5299972;28;20032;-67
2023/01/31 08:09:54;;;;;;;17.15;8.70;;;;;;;-145.79;79.42;79389.31;5298936;28;20035;-68
2023/01/31 08:12:25;;;;;;;16.10;8.25;;;;;;;-145.79;79.56;79378.72;5287138;28;20029;-68
2023/01/31 08:14:57;;;;;;;20.52;8.60;;;;;;;-145.79;79.18;79368.09;5286173;28;20024;-68
2023/01/31 08:17:28;;;;;;;16.58;8.07;;;;;;;-145.79;79.37;79374.47;5302532;28;20043;-68
2023/01/31 08:19:59;;;;;;;20.58;8.45;;;;;;;-145.79;78.59;79357.50;5302324;28;20027;-68
2023/01/31 08:22:30;;;;;;;16.08;8.23;;;;;;;-145.79;79.13;79382.94;5285450;28;20025;-67
2023/01/31 08:25:02;;;;;;;18.98;8.18;;;;;;;-145.79;79.35;79376.59;5284722;28;20024;-67
2023/01/31 08:27:33;;;;;;;17.38;7.47;;;;;;;-145.79;79.33;79376.59;5286350;28;20032;-72
2023/01/31 08:30:08;;;;;;;15.48;7.90;;;;;;;-145.79;79.40;79361.75;5285608;28;20383;-71
2023/01/31 08:32:39;;;;;;;17.38;7.53;;;;;;;-145.79;79.02;79353.25;5302283;28;20355;-71
2023/01/31 08:35:11;;;;;;;14.63;7.65;;;;;;;-145.79;79.02;79340.53;5306430;28;20054;-71
2023/01/31 08:37:42;;;;;;;16.85;7.65;;;;;;;-145.79;79.18;79336.28;5304338;28;20024;-70
2023/01/31 08:40:16;;;;;;;12.73;7.35;;;;;;;-145.79;79.05;79340.53;5299756;28;20424;-70
2023/01/31 08:42:55;;;;;;;16.92;7.75;;;;;;;-145.79;79.28;79332.06;5297238;28;20028;-70
2023/01/31 08:45:27;;;;;;;12.18;6.72;;;;;;;-145.79;78.91;79317.22;5305167;28;20012;-70
2023/01/31 08:47:59;;;;;;;22.15;7.90;;;;;;;-145.79;78.84;79302.38;5305196;28;20494;-71
2023/01/31 08:50:31;;;;;;;19.73;7.80;;;;;;;-145.79;78.70;79315.09;5298553;28;20127;-70
2023/01/31 08:53:03;;;;;;;10.73;6.68;;;;;;;-145.79;78.62;79306.59;5283819;28;20111;-70
2023/01/31 08:55:35;;;;;;;13.30;6.65;;;;;;;-145.79;78.97;79304.47;5290871;28;20024;-70
2023/01/31 08:58:06;;;;;;;13.50;7.63;;;;;;;-145.79;78.94;79293.88;5284818;28;20027;-70
2023/01/31 09:00:38;;;;;;;15.35;6.95;;;;;;;-145.79;78.83;79283.28;5283734;28;20055;-70
2023/01/31 09:03:15;;;;;;;15.25;7.93;;;;;;;-145.79;78.97;79268.44;5290679;28;20016;-69
2023/01/31 09:05:50;;;;;;;12.77;7.15;;;;;;;-145.79;78.81;79266.31;5294225;28;20032;-74
2023/01/31 09:08:21;;;;;;;18.92;7.32;;;;;;;-145.79;78.99;79264.19;5286182;28;20095;-71
2023/01/31 09:10:53;;;;;;;13.45;7.22;;;;;;;-145.79;79.04;79264.19;5285350;28;20054;-72
2023/01/31 09:13:25;;;;;;;12.07;6.97;;;;;;;-145.79;79.12;79255.72;5283607;28;20035;-71
2023/01/31 09:16:03;;;;;;;17.27;7.65;;;;;;;-145.79;79.06;79238.75;5284481;28;20021;-72
2023/01/31 09:18:35;;;;;;;19.50;6.93;;;;;;;-145.79;79.09;79242.97;5288853;28;20394;-71
2023/01/31 09:21:10;;;;;;;16.50;9.05;;;;;;;-145.79;78.86;79242.97;5288992;28;20467;-69
2023/01/31 09:23:42;;;;;;;12.65;6.82;;;;;;;-145.79;78.78;79230.25;5283647;28;20101;-71
2023/01/31 09:26:17;;;;;;;16.67;8.23;;;;;;;-145.79;78.70;79217.53;5284030;28;20443;-69
2023/01/31 09:28:49;;;;;;;24.95;7.13;;;;;;;-145.79;78.78;79204.81;5290100;28;20042;-71
2023/01/31 09:31:23;;;;;;;13.38;7.00;;;;;;;-145.79;78.75;79192.09;5284007;28;20036;-72
2023/01/31 09:33:55;;;;;;;13.43;5.68;;;;;;;-145.79;78.18;79183.59;5288156;28;20066;-71
2023/01/31 09:36:27;;;;;;;12.70;6.68;;;;;;;-145.79;77.47;79162.41;5298548;28;20039;-71
2023/01/31 09:38:58;;;;;;;16.08;7.05;;;;;;;-145.79;77.58;79170.88;5284674;28;20027;-72
2023/01/31 09:41:42;;;;;;;21.95;7.70;;;;;;;-145.79;77.93;79173.00;5286918;28;20017;-71
2023/01/31 09:44:20;;;;;;;12.60;7.40;;;;;;;-145.79;78.25;79179.38;5301028;28;20082;-71
2023/01/31 09:46:56;;;;;;;14.27;6.88;;;;;;;-145.79;78.24;79166.63;5286468;28;20024;-72
2023/01/31 09:49:36;;;;;;;13.73;6.00;;;;;;;-145.79;78.00;79160.28;5304047;28;20051;-71
2023/01/31 09:52:09;;;;;;;14.95;6.70;;;;;;;-145.79;77.47;79141.19;5296032;28;20115;-71
2023/01/31 09:54:41;;;;;;;12.77;7.28;;;;;;;-145.79;77.39;79134.84;5286240;28;20034;-69
2023/01/31 09:57:41;;;;;;;14.85;6.57;;;;;;;-145.79;77.58;79126.34;5292991;28;20020;-69
2023/01/31 10:00:51;;;;;;;17.98;7.97;;;;;;;-145.79;77.56;79120.00;5304487;28;20051;-70
2023/01/31 10:03:44;;;;;;;20.17;7.85;;;;;;;-145.79;77.60;79115.75;5248365;28;20115;-70
2023/01/31 10:06:27;;;;;;;16.23;7.32;;;;;;;-145.79;77.42;79111.50;5283221;28;20032;-70
2023/01/31 10:09:28;;;;;;;13.52;6.13;;;;;;;-145.79;77.82;79128.47;5282223;28;20077;-70
2023/01/31 10:12:26;;;;;;;17.02;7.57;;;;;;;-145.79;78.48;79132.72;5283278;28;20037;-70
2023/01/31 10:15:04;;;;;;;18.55;7.18;;;;;;;-145.79;78.35;79124.22;5283198;28;20463;-71
2023/01/31 10:18:04;;;;;;;17.52;8.73;;;;;;;-145.79;78.34;79124.22;5282365;28;20093;-71
2023/01/31 10:20:41;;;;;;;18.10;8.32;;;;;;;-145.79;78.63;79120.00;5282929;28;20041;-70
2023/01/31 10:23:19;;;;;;;17.30;8.05;;;;;;;-145.79;78.53;79113.63;5282862;28;20442;-71
2023/01/31 10:25:59;;;;;;;17.38;8.65;;;;;;;-145.79;78.45;79086.06;5299623;28;20395;-71
2023/01/31 10:28:36;;;;;;;15.05;8.18;;;;;;;-145.79;78.38;79105.16;5295280;28;20481;-69
2023/01/31 10:31:14;;;;;;;18.15;9.70;;;;;;;-145.79;78.56;79098.78;5297140;28;20032;-69
2023/01/31 10:33:56;;;;;;;17.23;9.43;;;;;;;-145.79;78.89;79113.63;5294285;28;20047;-68
2023/01/31 10:36:36;;;;;;;16.50;9.80;;;;;;;-145.79;79.14;79124.22;5292256;28;20033;-68
2023/01/31 10:39:22;;;;;;;15.75;8.93;;;;;;;-145.79;79.32;79113.63;5282546;28;20117;-70
2023/01/31 10:42:31;;;;;;;12.98;9.60;;;;;;;-145.79;79.82;79115.75;5292527;28;20024;-68
2023/01/31 10:45:08;;;;;;;24.35;12.13;;;;;;;-145.79;79.98;79115.75;5301781;28;20024;-68
2023/01/31 10:47:43;;;;;;;18.38;11.70;;;;;;;-145.79;79.81;79090.31;5282956;28;20020;-70
2023/01/31 10:50:24;;;;;;;21.40;12.55;;;;;;;-145.79;79.66;79083.94;5291335;28;20028;-70
2023/01/31 10:53:27;;;;;;;17.52;12.00;;;;;;;-145.79;79.90;79077.56;5295670;28;20028;-68
2023/01/31 10:56:09;;;;;;;20.10;12.60;;;;;;;-145.79;79.80;79069.09;5282396;28;20021;-72
2023/01/31 10:58:40;;;;;;;18.10;11.95;;;;;;;-145.79;79.57;79060.63;5281935;28;20386;-70
2023/01/31 11:01:13;;;;;;;22.83;13.75;;;;;;;-145.79;79.82;79069.09;5300344;28;20048;-72
2023/01/31 11:03:50;;;;;;;24.33;12.63;;;;;;;-145.79;79.69;79060.63;5301014;28;20036;-71
2023/01/31 11:06:23;;;;;;;21.13;11.43;;;;;;;-145.79;79.61;79054.25;5302384;28;20126;-72
2023/01/31 11:08:58;;;;;;;20.25;12.10;;;;;;;-145.79;79.62;79041.53;5303444;28;20032;-71
2023/01/31 11:11:29;;;;;;;20.40;13.13;;;;;;;-145.79;79.56;79041.53;5298326;28;20108;-72
2023/01/31 11:14:06;;;;;;;24.08;14.05;;;;;;;-145.79;79.14;79028.81;5281980;28;20443;-71
2023/01/31 11:16:39;;;;;;;18.08;12.70;;;;;;;-145.79;79.41;79011.84;5286416;28;20024;-70
2023/01/31 11:19:23;;;;;;;18.77;13.20;;;;;;;-145.79;79.10;79005.47;5302518;28;20021;-71
2023/01/31 11:21:55;;;;;;;16.83;12.05;;;;;;;-145.79;79.03;79001.25;5292405;28;20063;-71
2023/01/31 11:24:29;;;;;;;17.50;11.63;;;;;;;-145.79;78.47;78986.41;5297257;28;20086;-71
2023/01/31 11:27:21;;;;;;;18.13;12.07;;;;;;;-145.79;78.70;78980.03;5293625;28;20062;-71
2023/01/31 11:29:56;;;;;;;21.77;13.07;;;;;;;-145.79;78.80;78980.03;5302233;28;20052;-71
2023/01/31 11:32:31;;;;;;;17.90;11.52;;;;;;;-145.79;78.53;78967.31;5303404;28;20020;-70
2023/01/31 11:35:20;;;;;;;20.33;11.90;;;;;;;-145.79;78.49;78967.31;5301002;28;20032;-70
2023/01/31 11:37:53;;;;;;;17.98;12.00;;;;;;;-145.79;78.09;78952.47;5302482;28;20031;-72
2023/01/31 11:40:31;;;;;;;21.67;12.40;;;;;;;-145.79;78.46;78969.44;5302527;28;20390;-71
2023/01/31 11:43:24;;;;;;;17.35;12.20;;;;;;;-145.79;78.56;78963.06;5302314;28;20166;-72
2023/01/31 11:45:58;;;;;;;18.00;11.80;;;;;;;-145.79;78.20;78965.19;5283017;28;20036;-71
2023/01/31 11:48:32;;;;;;;17.25;11.48;;;;;;;-145.79;78.19;78954.59;5285373;28;20113;-71
2023/01/31 11:51:04;;;;;;;19.77;11.85;;;;;;;-145.79;78.21;78950.34;5286011;28;20091;-71
2023/01/31 11:53:45;;;;;;;18.58;10.27;;;;;;;-145.79;78.53;78939.75;5296731;28;20047;-71
2023/01/31 11:56:23;;;;;;;17.98;12.00;;;;;;;-145.79;78.44;78950.34;5305438;28;20050;-71
2023/01/31 11:59:01;;;;;;;18.95;11.95;;;;;;;-145.79;78.67;78944.00;5306879;28;20027;-71
2023/01/31 12:01:35;;;;;;;18.02;9.82;;;;;;;-145.79;78.51;78948.22;5297437;28;20021;-71
2023/01/31 12:04:15;;;;;;;16.48;10.43;;;;;;;-145.79;79.09;78950.34;5298505;28;20036;-72
2023/01/31 12:07:04;;;;;;;20.73;10.95;;;;;;;-145.79;79.89;78954.59;5306976;28;20020;-71
2023/01/31 12:09:43;;;;;;;20.10;10.75;;;;;;;-145.79;80.04;78946.09;5306271;28;20035;-71
2023/01/31 12:12:34;;;;;;;17.52;8.82;;;;;;;-145.79;80.05;78948.22;5305714;28;20020;-72
2023/01/31 12:15:13;;;;;;;60.65;45.22;;;;;;;-145.79;80.88;78950.34;5303248;28;20348;-69
2023/01/31 12:17:48;;;;;;;18.58;10.55;;;;;;;-145.79;80.93;78958.84;5303491;28;20111;-71
2023/01/31 12:20:38;;;;;;;17.80;10.63;;;;;;;-145.79;81.43;78967.31;5285556;28;20039;-73
2023/01/31 12:23:29;;;;;;;18.17;9.85;;;;;;;-145.79;81.72;78960.94;5294951;28;20020;-72
2023/01/31 12:26:28;;;;;;;16.67;9.73;;;;;;;-145.79;81.81;78954.59;5285560;28;20028;-71
2023/01/31 12:29:19;;;;;;;18.02;11.65;;;;;;;-145.79;82.46;78963.06;5289698;28;20035;-71
2023/01/31 12:32:19;;;;;;;20.15;12.52;;;;;;;-145.79;83.75;78971.56;5298116;28;20035;-72
2023/01/31 12:35:12;;;;;;;19.73;12.23;;;;;;;-145.79;85.26;78980.03;5290885;28;20047;-71
2023/01/31 12:38:04;;;;;;;19.70;12.43;;;;;;;-145.79;86.25;78963.06;5284031;28;20052;-72
2023/01/31 12:40:38;;;;;;;19.65;11.65;;;;;;;-145.79;86.57;78973.69;5285153;28;20031;-71
2023/01/31 12:43:24;;;;;;;18.00;11.40;;;;;;;-145.79;87.78;78984.28;5302813;28;20039;-71
2023/01/31 12:46:34;;;;;;;21.70;12.73;;;;;;;-145.79;89.05;78984.28;5295673;28;20060;-71
2023/01/31 12:49:28;;;;;;;18.17;11.30;;;;;;;-145.79;89.58;78988.53;5269585;28;20037;-70
2023/01/31 12:52:25;;;;;;;19.45;12.80;;;;;;;-145.79;90.16;78988.53;5286739;28;20467;-70
2023/01/31 12:55:12;;;;;;;20.85;11.00;;;;;;;-145.79;89.88;78980.03;5286826;28;20081;-71
2023/01/31 12:58:20;;;;;;;20.27;12.10;;;;;;;-145.79;90.53;78982.16;5284005;28;20113;-71
2023/01/31 13:00:58;;;;;;;75.90;57.30;;;;;;;-145.79;91.08;78984.28;5296559;28;20478;-72
2023/01/31 13:03:40;;;;;;;18.17;11.00;;;;;;;-145.79;91.46;78977.91;5285323;28;20036;-72
2023/01/31 13:06:23;;;;;;;19.10;10.13;;;;;;;-145.79;91.92;78971.56;5294729;28;20513;-71
2023/01/31 13:09:00;;;;;;;20.10;12.00;;;;;;;-145.79;92.24;78971.56;5301854;28;20037;-77
2023/01/31 13:11:41;;;;;;;16.85;11.57;;;;;;;-145.79;92.31;78960.94;5289124;28;20058;-74
2023/01/31 13:14:19;;;;;;;16.40;10.48;;;;;;;-145.79;92.71;78967.31;5305487;28;20386;-73
2023/01/31 13:17:03;;;;;;;14.18;9.20;;;;;;;-145.79;92.85;78952.47;5304925;28;20104;-72
2023/01/31 13:19:56;;;;;;;11.93;7.75;;;;;;;-145.79;92.84;78946.09;5302206;28;20040;-70
2023/01/31 13:22:32;;;;;;;14.65;7.88;;;;;;;-145.79;92.47;78937.63;5284101;28;20024;-70
2023/01/31 13:25:28;;;;;;;14.07;8.35;;;;;;;-145.79;92.84;78944.00;5287835;28;20399;-71
2023/01/31 13:28:11;;;;;;;14.27;7.63;;;;;;;-145.79;93.11;78944.00;5283332;28;20028;-70
2023/01/31 13:30:58;;;;;;;14.27;8.13;;;;;;;-145.79;93.26;78950.34;5284434;28;20425;-71
2023/01/31 13:33:35;;;;;;;14.13;9.23;;;;;;;-145.79;93.50;78952.47;5282763;28;20025;-72
2023/01/31 13:36:22;;;;;;;14.65;7.30;;;;;;;-145.79;93.60;78944.00;5287018;28;20035;-71
2023/01/31 13:38:55;;;;;;;13.40;7.75;;;;;;;-145.79;93.47;78948.22;5304291;28;20040;-72
2023/01/31 13:41:29;;;;;;;12.93;6.13;;;;;;;-145.79;93.66;78933.38;5304191;28;20055;-72
2023/01/31 13:44:01;;;;;;;10.60;8.43;;;;;;;-145.79;93.34;78937.63;5299506;28;20108;-73
2023/01/31 13:46:32;;;;;;;14.25;6.90;;;;;;;-145.79;93.51;78922.78;5287053;28;20047;-73
2023/01/31 13:49:30;;;;;;;9.13;6.20;;;;;;;-145.79;93.74;78920.66;5289575;28;20051;-71
2023/01/31 13:52:09;;;;;;;10.73;6.32;;;;;;;-145.79;93.60;78907.94;5295960;28;20110;-71
2023/01/31 13:54:48;;;;;;;11.15;7.03;;;;;;;-145.79;93.42;78903.69;5293036;28;20428;-71
2023/01/31 13:57:28;;;;;;;11.75;6.63;;;;;;;-145.79;93.47;78903.69;5296338;28;20111;-72
2023/01/31 14:00:26;;;;;;;12.70;6.55;;;;;;;-145.79;93.03;78899.47;5299878;28;20072;-71
2023/01/31 14:03:09;;;;;;;11.25;6.93;;;;;;;-145.79;93.35;78886.75;5286333;28;20064;-71
2023/01/31 14:05:44;;;;;;;13.15;6.10;;;;;;;-145.79;93.36;78895.22;5301554;28;20027;-71
2023/01/31 14:08:46;;;;;;;9.23;6.88;;;;;;;-145.79;93.84;78903.69;5303238;28;20441;-71
2023/01/31 14:11:21;;;;;;;53.63;42.08;;;;;;;-145.79;93.42;78893.09;5303068;28;20386;-71
2023/01/31 14:14:36;;;;;;;11.82;6.82;;;;;;;-145.79;93.47;78884.63;5303590;28;20036;-71
2023/01/31 14:17:21;;;;;;;8.80;6.57;;;;;;;-145.79;93.23;78886.75;5273648;28;20364;-71
2023/01/31 14:19:54;;;;;;;10.45;5.80;;;;;;;-145.79;93.03;78880.38;5294241;28;20387;-72
2023/01/31 14:22:34;;;;;;;15.55;6.25;;;;;;;-145.79;92.94;78882.50;5302923;28;20059;-70
2023/01/31 14:25:08;;;;;;;12.85;5.70;;;;;;;-145.79;92.71;78878.25;5303854;28;20036;-72
2023/01/31 14:27:45;;;;;;;13.80;5.53;;;;;;;-145.79;92.41;78880.38;5305786;28;20023;-74
2023/01/31 14:30:34;;;;;;;10.75;5.93;;;;;;;-145.79;92.50;78884.63;5294915;28;20070;-72
2023/01/31 14:33:11;;;;;;;14.27;9.27;;;;;;;-145.79;91.67;78890.97;5287512;28;20099;-73
2023/01/31 14:36:02;;;;;;;9.40;5.63;;;;;;;-145.79;91.82;78888.84;5298300;28;20039;-71
2023/01/31 14:39:03;;;;;;;13.43;6.65;;;;;;;-145.79;91.86;78884.63;5293070;28;20024;-72
2023/01/31 14:41:53;;;;;;;12.70;5.50;;;;;;;-145.79;91.79;78895.22;5288336;28;20040;-71
2023/01/31 14:44:43;;;;;;;13.32;5.88;;;;;;;-145.79;91.23;78884.63;5282299;28;20036;-71
2023/01/31 14:47:38;;;;;;;16.17;5.85;;;;;;;-145.79;90.88;78882.50;5282945;28;20071;-72
2023/01/31 14:50:38;;;;;;;16.83;7.32;;;;;;;-145.79;90.47;78882.50;5291703;28;20035;-73
2023/01/31 14:53:38;;;;;;;17.92;6.35;;;;;;;-145.79;89.95;78890.97;5281984;28;20032;-72
2023/01/31 14:56:33;;;;;;;13.60;5.40;;;;;;;-145.79;90.32;78895.22;5296029;28;20031;-71
2023/01/31 14:59:25;;;;;;;13.63;5.47;;;;;;;-145.79;89.89;78901.56;5282530;28;20052;-72
2023/01/31 15:01:57;;;;;;;14.10;6.65;;;;;;;-145.79;89.82;78895.22;5282710;28;20028;-72
2023/01/31 15:04:29;;;;;;;11.57;5.10;;;;;;;-145.79;89.58;78893.09;5287595;28;20478;-73
2023/01/31 15:07:00;;;;;;;11.52;4.55;;;;;;;-145.79;89.44;78878.25;5302543;28;20073;-72
2023/01/31 15:09:37;;;;;;;18.20;5.45;;;;;;;-145.79;89.19;78882.50;5289391;28;20024;-74
2023/01/31 15:12:46;;;;;;;10.85;4.88;;;;;;;-145.79;89.42;78884.63;5301742;28;20360;-72
2023/01/31 15:15:33;;;;;;;16.42;7.55;;;;;;;-145.79;89.37;78888.84;5282279;28;20042;-72
2023/01/31 15:18:31;;;;;;;12.10;4.55;;;;;;;-145.79;88.76;78890.97;5292376;28;20035;-73
2023/01/31 15:21:06;;;;;;;12.43;5.57;;;;;;;-145.79;89.02;78893.09;5291082;28;20573;-72
2023/01/31 15:23:41;;;;;;;13.82;6.03;;;;;;;-145.79;88.71;78888.84;5290913;28;20031;-72
2023/01/31 15:26:15;;;;;;;14.35;5.30;;;;;;;-145.79;88.48;78882.50;5291823;28;20028;-71
2023/01/31 15:28:49;;;;;;;14.60;6.90;;;;;;;-145.79;88.10;78886.75;5305902;28;20032;-71
2023/01/31 15:31:47;;;;;;;19.02;9.20;;;;;;;-145.79;87.94;78882.50;5288478;28;20057;-71
2023/01/31 15:34:26;;;;;;;11.93;6.25;;;;;;;-145.79;87.73;78878.25;5303930;28;20039;-71
2023/01/31 15:37:22;;;;;;;12.50;5.72;;;;;;;-145.79;88.02;78874.00;5304612;28;20111;-71
2023/01/31 15:40:05;;;;;;;15.00;6.00;;;;;;;-145.79;87.46;78874.00;5306528;28;20024;-72
2023/01/31 15:42:37;;;;;;;17.67;6.03;;;;;;;-145.79;87.46;78878.25;5296912;28;20471;-72
2023/01/31 15:45:25;;;;;;;12.75;5.13;;;;;;;-145.79;87.07;78871.91;5290346;28;20174;-72
2023/01/31 15:48:14;;;;;;;14.02;5.93;;;;;;;-145.79;86.87;78876.13;5303543;28;20023;-72
2023/01/31 15:50:48;;;;;;;17.88;6.93;;;;;;;-145.79;87.15;78878.25;5294036;28;20028;-72
2023/01/31 15:53:22;;;;;;;14.00;4.43;;;;;;;-145.79;86.84;78874.00;5298875;28;20032;-72
2023/01/31 15:55:57;;;;;;;9.95;5.22;;;;;;;-145.79;86.36;78871.91;5306699;28;20040;-73
2023/01/31 15:58:30;;;;;;;13.38;4.88;;;;;;;-145.79;86.17;78874.00;5306657;28;20466;-72
2023/01/31 16:01:03;;;;;;;17.23;5.43;;;;;;;-145.79;85.85;78876.13;5289465;28;20067;-70
2023/01/31 16:03:39;;;;;;;13.77;5.05;;;;;;;-145.79;85.72;78878.25;5308017;28;20865;-73
2023/01/31 16:06:26;;;;;;;14.20;5.80;;;;;;;-145.79;85.69;78882.50;5302431;28;20028;-72
2023/01/31 16:08:59;;;;;;;16.48;5.07;;;;;;;-145.79;85.41;78895.22;5285410;28;20020;-73
2023/01/31 16:11:33;;;;;;;12.05;5.00;;;;;;;-145.79;85.23;78895.22;5286628;28;20032;-72
2023/01/31 16:14:06;;;;;;;11.68;4.45;;;;;;;-145.79;84.79;78905.81;5298574;28;20111;-74
2023/01/31 16:16:38;;;;;;;14.75;5.30;;;;;;;-145.79;84.53;78907.94;5296448;28;20031;-69
2023/01/31 16:19:20;;;;;;;12.93;4.18;;;;;;;-145.79;84.74;78918.53;5301591;28;20424;-70
2023/01/31 16:21:56;;;;;;;12.90;5.43;;;;;;;-145.79;85.11;78905.81;5305951;28;20032;-70
2023/01/31 16:24:27;;;;;;;15.68;4.88;;;;;;;-145.79;84.87;78897.34;5298353;28;20387;-70
2023/01/31 16:27:01;;;;;;;13.65;4.90;;;;;;;-145.79;84.09;78890.97;5289091;28;20039;-71
2023/01/31 16:29:51;;;;;;;13.30;6.00;;;;;;;-145.79;84.08;78890.97;5300080;28;20521;-70
2023/01/31 16:32:26;;;;;;;14.55;4.63;;;;;;;-145.79;83.85;78899.47;5292833;28;20028;-69
